sensor_id;sensor_type;location;lat;lon;timestamp;P1;durP1;ratioP1;P2;durP2;ratioP2
489;SDS011;231;48.120;11.576;2023-07-29T01:43:16;5.80;;;5.50;;
489;SDS011;231;48.120;11.576;2023-07-29T01:45:44;5.57;;;5.27;;
489;SDS011;231;48.120;11.576;2023-07-29T01:48:11;6.27;;;4.70;;
489;SDS011;231;48.120;11.576;2023-07-29T01:50:38;6.07;;;4.90;;
489;SDS011;231;48.120;11.576;2023-07-29T01:53:05;5.17;;;4.87;;
489;SDS011;231;48.120;11.576;2023-07-29T01:55:32;5.37;;;5.07;;
489;SDS011;231;48.120;11.576;2023-07-29T01:57:59;6.23;;;5.90;;
489;SDS011;231;48.120;11.576;2023-07-29T02:00:28;6.23;;;5.90;;
489;SDS011;231;48.120;11.576;2023-07-29T02:02:55;6.43;;;6.07;;
489;SDS011;231;48.120;11.576;2023-07-29T02:05:22;9.67;;;9.17;;
489;SDS011;231;48.120;11.576;2023-07-29T02:07:49;7.00;;;6.60;;
489;SDS011;231;48.120;11.576;2023-07-29T02:10:16;6.07;;;5.77;;
489;SDS011;231;48.120;11.576;2023-07-29T02:12:42;6.23;;;5.90;;
489;SDS011;231;48.120;11.576;2023-07-29T06:05:46;33.25;;;6.50;;
489;SDS011;231;48.120;11.576;2023-07-29T06:08:14;37.83;;;7.47;;
489;SDS011;231;48.120;11.576;2023-07-29T06:10:41;4.87;;;3.97;;
489;SDS011;231;48.120;11.576;2023-07-29T06:13:08;5.87;;;3.80;;
489;SDS011;231;48.120;11.576;2023-07-29T06:15:35;3.40;;;3.20;;
489;SDS011;231;48.120;11.576;2023-07-29T06:18:07;3.43;;;3.23;;
489;SDS011;231;48.120;11.576;2023-07-29T06:20:35;3.80;;;3.60;;
489;SDS011;231;48.120;11.576;2023-07-29T06:23:02;3.37;;;3.17;;
489;SDS011;231;48.120;11.576;2023-07-29T06:25:30;3.47;;;3.20;;
489;SDS011;231;48.120;11.576;2023-07-29T06:27:57;5.50;;;4.30;;
489;SDS011;231;48.120;11.576;2023-07-29T06:30:24;5.30;;;5.00;;
489;SDS011;231;48.120;11.576;2023-07-29T06:32:50;4.73;;;4.43;;
489;SDS011;231;48.120;11.576;2023-07-29T06:35:19;5.00;;;4.70;;
489;SDS011;231;48.120;11.576;2023-07-29T06:37:46;4.33;;;4.03;;
489;SDS011;231;48.120;11.576;2023-07-29T06:40:13;8.70;;;4.67;;
489;SDS011;231;48.120;11.576;2023-07-29T06:42:40;5.40;;;4.50;;
489;SDS011;231;48.120;11.576;2023-07-29T06:45:07;4.97;;;4.70;;
489;SDS011;231;48.120;11.576;2023-07-29T06:47:35;4.47;;;4.17;;
489;SDS011;231;48.120;11.576;2023-07-29T06:50:02;4.60;;;4.30;;
489;SDS011;231;48.120;11.576;2023-07-29T06:52:30;3.40;;;3.13;;
489;SDS011;231;48.120;11.576;2023-07-29T06:54:57;9.60;;;3.90;;
489;SDS011;231;48.120;11.576;2023-07-29T06:57:24;7.27;;;5.13;;
489;SDS011;231;48.120;11.576;2023-07-29T06:59:51;4.67;;;4.37;;
489;SDS011;231;48.120;11.576;2023-07-29T07:02:18;4.73;;;4.43;;
489;SDS011;231;48.120;11.576;2023-07-29T07:04:45;5.20;;;4.87;;
489;SDS011;231;48.120;11.576;2023-07-29T07:07:12;4.80;;;4.50;;
489;SDS011;231;48.120;11.576;2023-07-29T07:09:42;5.33;;;5.00;;
489;SDS011;231;48.120;11.576;2023-07-29T07:12:09;6.83;;;4.43;;
489;SDS011;231;48.120;11.576;2023-07-29T07:14:37;5.07;;;4.77;;
489;SDS011;231;48.120;11.576;2023-07-29T07:17:05;5.13;;;4.83;;
489;SDS011;231;48.120;11.576;2023-07-29T07:19:32;6.07;;;5.20;;
489;SDS011;231;48.120;11.576;2023-07-29T07:21:59;5.53;;;5.23;;
489;SDS011;231;48.120;11.576;2023-07-29T07:24:29;6.77;;;5.40;;
489;SDS011;231;48.120;11.576;2023-07-29T07:27:02;5.77;;;5.47;;
489;SDS011;231;48.120;11.576;2023-07-29T07:29:30;5.20;;;4.90;;
489;SDS011;231;48.120;11.576;2023-07-29T07:31:58;8.53;;;5.53;;
489;SDS011;231;48.120;11.576;2023-07-29T07:34:26;5.30;;;5.00;;
489;SDS011;231;48.120;11.576;2023-07-29T07:36:53;6.47;;;5.77;;
489;SDS011;231;48.120;11.576;2023-07-29T07:42:48;5.27;;;4.97;;
489;SDS011;231;48.120;11.576;2023-07-29T07:45:15;6.23;;;5.50;;
489;SDS011;231;48.120;11.576;2023-07-29T07:47:51;5.40;;;5.10;;
489;SDS011;231;48.120;11.576;2023-07-29T07:50:20;8.23;;;4.97;;
489;SDS011;231;48.120;11.576;2023-07-29T07:55:30;6.10;;;5.80;;
489;SDS011;231;48.120;11.576;2023-07-29T07:57:58;7.07;;;6.67;;
489;SDS011;231;48.120;11.576;2023-07-29T08:00:25;6.00;;;5.70;;
489;SDS011;231;48.120;11.576;2023-07-29T08:02:52;7.53;;;5.63;;
489;SDS011;231;48.120;11.576;2023-07-29T08:05:19;5.90;;;5.60;;
489;SDS011;231;48.120;11.576;2023-07-29T08:07:46;5.90;;;5.60;;
489;SDS011;231;48.120;11.576;2023-07-29T08:10:13;6.60;;;6.20;;
489;SDS011;231;48.120;11.576;2023-07-29T08:12:40;7.13;;;6.70;;
489;SDS011;231;48.120;11.576;2023-07-29T08:15:08;4.93;;;4.63;;
489;SDS011;231;48.120;11.576;2023-07-29T08:17:35;5.63;;;5.33;;
489;SDS011;231;48.120;11.576;2023-07-29T08:20:02;6.60;;;5.30;;
489;SDS011;231;48.120;11.576;2023-07-29T08:22:30;6.43;;;4.70;;
489;SDS011;231;48.120;11.576;2023-07-29T08:24:57;5.30;;;5.00;;
489;SDS011;231;48.120;11.576;2023-07-29T08:27:24;4.97;;;4.67;;
489;SDS011;231;48.120;11.576;2023-07-29T08:29:51;4.63;;;4.33;;
489;SDS011;231;48.120;11.576;2023-07-29T08:32:21;5.00;;;4.70;;
489;SDS011;231;48.120;11.576;2023-07-29T08:34:48;5.80;;;4.70;;
489;SDS011;231;48.120;11.576;2023-07-29T08:37:15;4.00;;;3.80;;
489;SDS011;231;48.120;11.576;2023-07-29T08:39:45;5.03;;;4.30;;
489;SDS011;231;48.120;11.576;2023-07-29T08:42:21;3.97;;;3.77;;
489;SDS011;231;48.120;11.576;2023-07-29T08:44:49;4.30;;;4.00;;
489;SDS011;231;48.120;11.576;2023-07-29T08:47:17;3.50;;;3.30;;
489;SDS011;231;48.120;11.576;2023-07-29T08:49:47;4.17;;;3.93;;
489;SDS011;231;48.120;11.576;2023-07-29T08:52:14;3.80;;;3.53;;
489;SDS011;231;48.120;11.576;2023-07-29T08:54:41;4.57;;;4.27;;
489;SDS011;231;48.120;11.576;2023-07-29T08:57:08;3.80;;;3.60;;
489;SDS011;231;48.120;11.576;2023-07-29T08:59:36;3.63;;;3.43;;
489;SDS011;231;48.120;11.576;2023-07-29T09:02:03;3.40;;;3.20;;
489;SDS011;231;48.120;11.576;2023-07-29T09:04:30;4.23;;;3.17;;
489;SDS011;231;48.120;11.576;2023-07-29T09:06:59;3.73;;;3.53;;
489;SDS011;231;48.120;11.576;2023-07-29T09:09:26;4.27;;;3.90;;
489;SDS011;231;48.120;11.576;2023-07-29T09:11:53;3.97;;;3.77;;
489;SDS011;231;48.120;11.576;2023-07-29T09:14:20;3.63;;;3.43;;
489;SDS011;231;48.120;11.576;2023-07-29T09:16:49;3.60;;;3.40;;
489;SDS011;231;48.120;11.576;2023-07-29T09:19:37;4.30;;;4.10;;
489;SDS011;231;48.120;11.576;2023-07-29T09:22:07;2.70;;;2.50;;
489;SDS011;231;48.120;11.576;2023-07-29T09:24:44;3.00;;;2.80;;
489;SDS011;231;48.120;11.576;2023-07-29T09:30:22;2.77;;;2.57;;
489;SDS011;231;48.120;11.576;2023-07-29T09:33:13;3.00;;;2.53;;
489;SDS011;231;48.120;11.576;2023-07-29T09:35:40;2.77;;;2.57;;
489;SDS011;231;48.120;11.576;2023-07-29T09:38:17;3.10;;;2.90;;
489;SDS011;231;48.120;11.576;2023-07-29T09:40:55;3.20;;;3.00;;
489;SDS011;231;48.120;11.576;2023-07-29T09:43:40;3.37;;;3.20;;
489;SDS011;231;48.120;11.576;2023-07-29T09:46:16;3.10;;;2.90;;
489;SDS011;231;48.120;11.576;2023-07-29T09:48:44;3.00;;;2.80;;
489;SDS011;231;48.120;11.576;2023-07-29T09:51:18;3.60;;;3.27;;
489;SDS011;231;48.120;11.576;2023-07-29T10:00:53;3.70;;;3.50;;
489;SDS011;231;48.120;11.576;2023-07-29T10:03:21;2.90;;;2.73;;
489;SDS011;231;48.120;11.576;2023-07-29T10:08:43;3.10;;;2.90;;
489;SDS011;231;48.120;11.576;2023-07-29T10:11:11;3.63;;;3.43;;
489;SDS011;231;48.120;11.576;2023-07-29T10:13:39;3.27;;;3.07;;
489;SDS011;231;48.120;11.576;2023-07-29T10:16:06;2.97;;;2.77;;
489;SDS011;231;48.120;11.576;2023-07-29T10:18:36;2.97;;;2.77;;
489;SDS011;231;48.120;11.576;2023-07-29T10:21:06;3.33;;;3.13;;
489;SDS011;231;48.120;11.576;2023-07-29T10:27:01;3.10;;;2.90;;
489;SDS011;231;48.120;11.576;2023-07-29T10:29:31;2.93;;;2.73;;
489;SDS011;231;48.120;11.576;2023-07-29T10:32:01;3.10;;;2.90;;
489;SDS011;231;48.120;11.576;2023-07-29T10:34:37;3.40;;;3.20;;
489;SDS011;231;48.120;11.576;2023-07-29T10:37:10;6.33;;;3.63;;
489;SDS011;231;48.120;11.576;2023-07-29T10:39:38;3.60;;;3.10;;
489;SDS011;231;48.120;11.576;2023-07-29T10:42:06;3.00;;;2.80;;
489;SDS011;231;48.120;11.576;2023-07-29T10:47:52;3.63;;;3.43;;
489;SDS011;231;48.120;11.576;2023-07-29T10:50:36;3.40;;;3.03;;
489;SDS011;231;48.120;11.576;2023-07-29T10:53:29;3.60;;;3.27;;
489;SDS011;231;48.120;11.576;2023-07-29T10:55:56;5.70;;;4.10;;
489;SDS011;231;48.120;11.576;2023-07-29T10:58:23;3.20;;;3.00;;
489;SDS011;231;48.120;11.576;2023-07-29T11:00:52;3.63;;;3.43;;
489;SDS011;231;48.120;11.576;2023-07-29T11:03:20;5.23;;;3.63;;
489;SDS011;231;48.120;11.576;2023-07-29T11:05:49;4.23;;;3.97;;
489;SDS011;231;48.120;11.576;2023-07-29T11:08:22;3.50;;;3.30;;
489;SDS011;231;48.120;11.576;2023-07-29T11:11:00;3.77;;;2.70;;
489;SDS011;231;48.120;11.576;2023-07-29T11:13:29;2.90;;;2.70;;
489;SDS011;231;48.120;11.576;2023-07-29T11:15:59;3.60;;;3.40;;
489;SDS011;231;48.120;11.576;2023-07-29T11:18:27;3.30;;;3.10;;
489;SDS011;231;48.120;11.576;2023-07-29T11:20:55;3.87;;;3.67;;
489;SDS011;231;48.120;11.576;2023-07-29T11:23:27;3.67;;;3.47;;
489;SDS011;231;48.120;11.576;2023-07-29T11:25:55;2.60;;;2.40;;
489;SDS011;231;48.120;11.576;2023-07-29T11:28:23;3.87;;;3.33;;
489;SDS011;231;48.120;11.576;2023-07-29T11:30:50;7.53;;;2.60;;
489;SDS011;231;48.120;11.576;2023-07-29T11:33:19;2.87;;;2.27;;
489;SDS011;231;48.120;11.576;2023-07-29T11:35:46;2.50;;;2.30;;
489;SDS011;231;48.120;11.576;2023-07-29T11:38:14;1.83;;;1.73;;
489;SDS011;231;48.120;11.576;2023-07-29T11:40:42;4.20;;;2.70;;
489;SDS011;231;48.120;11.576;2023-07-29T11:43:09;2.37;;;2.17;;
489;SDS011;231;48.120;11.576;2023-07-29T11:45:44;2.37;;;2.17;;
489;SDS011;231;48.120;11.576;2023-07-29T11:48:11;2.07;;;1.93;;
489;SDS011;231;48.120;11.576;2023-07-29T11:50:39;2.43;;;2.23;;
489;SDS011;231;48.120;11.576;2023-07-29T11:53:06;2.33;;;2.13;;
489;SDS011;231;48.120;11.576;2023-07-29T11:55:33;4.17;;;2.60;;
489;SDS011;231;48.120;11.576;2023-07-29T11:58:00;2.80;;;2.60;;
489;SDS011;231;48.120;11.576;2023-07-29T12:00:27;2.57;;;2.37;;
489;SDS011;231;48.120;11.576;2023-07-29T12:02:54;2.80;;;2.60;;
489;SDS011;231;48.120;11.576;2023-07-29T12:05:22;2.90;;;2.70;;
489;SDS011;231;48.120;11.576;2023-07-29T12:07:51;3.20;;;3.00;;
489;SDS011;231;48.120;11.576;2023-07-29T12:10:18;3.70;;;2.70;;
489;SDS011;231;48.120;11.576;2023-07-29T12:12:47;2.97;;;2.77;;
489;SDS011;231;48.120;11.576;2023-07-29T12:15:22;3.50;;;3.30;;
489;SDS011;231;48.120;11.576;2023-07-29T12:17:52;3.60;;;3.40;;
489;SDS011;231;48.120;11.576;2023-07-29T12:20:21;2.80;;;2.60;;
489;SDS011;231;48.120;11.576;2023-07-29T12:22:52;2.73;;;2.53;;
489;SDS011;231;48.120;11.576;2023-07-29T12:25:20;3.17;;;2.97;;
489;SDS011;231;48.120;11.576;2023-07-29T12:27:47;3.10;;;2.90;;
489;SDS011;231;48.120;11.576;2023-07-29T12:30:14;2.93;;;2.73;;
489;SDS011;231;48.120;11.576;2023-07-29T12:32:45;3.60;;;3.10;;
489;SDS011;231;48.120;11.576;2023-07-29T12:35:12;3.40;;;3.20;;
489;SDS011;231;48.120;11.576;2023-07-29T12:37:39;3.60;;;3.40;;
489;SDS011;231;48.120;11.576;2023-07-29T12:40:20;2.93;;;2.73;;
489;SDS011;231;48.120;11.576;2023-07-29T12:42:50;3.17;;;2.97;;
489;SDS011;231;48.120;11.576;2023-07-29T12:45:17;3.73;;;3.53;;
489;SDS011;231;48.120;11.576;2023-07-29T12:47:46;3.07;;;2.87;;
489;SDS011;231;48.120;11.576;2023-07-29T12:50:13;3.80;;;3.43;;
489;SDS011;231;48.120;11.576;2023-07-29T12:52:40;3.23;;;3.03;;
489;SDS011;231;48.120;11.576;2023-07-29T12:55:07;3.70;;;3.47;;
489;SDS011;231;48.120;11.576;2023-07-29T12:57:38;3.70;;;3.27;;
489;SDS011;231;48.120;11.576;2023-07-29T13:00:06;3.37;;;3.17;;
489;SDS011;231;48.120;11.576;2023-07-29T13:02:34;5.23;;;3.47;;
489;SDS011;231;48.120;11.576;2023-07-29T13:05:01;3.47;;;3.27;;
489;SDS011;231;48.120;11.576;2023-07-29T13:07:29;5.70;;;3.83;;
489;SDS011;231;48.120;11.576;2023-07-29T13:09:55;5.73;;;3.83;;
489;SDS011;231;48.120;11.576;2023-07-29T13:12:24;5.20;;;4.40;;
489;SDS011;231;48.120;11.576;2023-07-29T13:14:50;4.07;;;3.87;;
489;SDS011;231;48.120;11.576;2023-07-29T13:17:17;3.80;;;3.60;;
489;SDS011;231;48.120;11.576;2023-07-29T13:19:44;26.20;;;7.60;;
489;SDS011;231;48.120;11.576;2023-07-29T13:25:52;6.57;;;6.17;;
489;SDS011;231;48.120;11.576;2023-07-29T13:28:24;7.00;;;6.60;;
489;SDS011;231;48.120;11.576;2023-07-29T13:30:51;8.60;;;8.10;;
489;SDS011;231;48.120;11.576;2023-07-29T13:33:21;7.80;;;7.40;;
489;SDS011;231;48.120;11.576;2023-07-29T13:35:48;8.10;;;7.70;;
489;SDS011;231;48.120;11.576;2023-07-29T13:38:15;8.07;;;7.67;;
489;SDS011;231;48.120;11.576;2023-07-29T13:40:42;7.53;;;7.13;;
489;SDS011;231;48.120;11.576;2023-07-29T13:43:09;9.00;;;8.50;;
489;SDS011;231;48.120;11.576;2023-07-29T13:45:37;9.33;;;8.83;;
489;SDS011;231;48.120;11.576;2023-07-29T13:48:04;10.23;;;8.87;;
489;SDS011;231;48.120;11.576;2023-07-29T13:50:31;8.00;;;7.60;;
489;SDS011;231;48.120;11.576;2023-07-29T13:52:58;8.97;;;8.47;;
489;SDS011;231;48.120;11.576;2023-07-29T13:55:25;9.07;;;8.57;;
489;SDS011;231;48.120;11.576;2023-07-29T13:57:52;8.30;;;7.90;;
489;SDS011;231;48.120;11.576;2023-07-29T14:00:19;9.33;;;8.83;;
489;SDS011;231;48.120;11.576;2023-07-29T14:02:48;7.30;;;6.90;;
489;SDS011;231;48.120;11.576;2023-07-29T14:05:14;7.67;;;7.27;;
489;SDS011;231;48.120;11.576;2023-07-29T14:07:41;12.37;;;7.13;;
489;SDS011;231;48.120;11.576;2023-07-29T14:10:08;8.47;;;8.00;;
489;SDS011;231;48.120;11.576;2023-07-29T14:12:35;9.60;;;7.10;;
489;SDS011;231;48.120;11.576;2023-07-29T14:15:03;12.23;;;7.57;;
489;SDS011;231;48.120;11.576;2023-07-29T14:17:31;7.80;;;7.40;;
489;SDS011;231;48.120;11.576;2023-07-29T14:19:59;8.10;;;7.70;;
489;SDS011;231;48.120;11.576;2023-07-29T14:22:27;7.23;;;6.83;;
489;SDS011;231;48.120;11.576;2023-07-29T14:24:54;7.50;;;7.10;;
489;SDS011;231;48.120;11.576;2023-07-29T14:27:20;7.33;;;6.80;;
489;SDS011;231;48.120;11.576;2023-07-29T14:29:47;7.33;;;6.93;;
489;SDS011;231;48.120;11.576;2023-07-29T14:32:14;7.53;;;7.13;;
489;SDS011;231;48.120;11.576;2023-07-29T14:34:41;7.27;;;6.60;;
489;SDS011;231;48.120;11.576;2023-07-29T14:37:12;7.37;;;6.97;;
489;SDS011;231;48.120;11.576;2023-07-29T14:39:42;8.63;;;7.47;;
489;SDS011;231;48.120;11.576;2023-07-29T14:42:09;7.63;;;7.23;;
489;SDS011;231;48.120;11.576;2023-07-29T14:44:36;6.60;;;6.20;;
489;SDS011;231;48.120;11.576;2023-07-29T14:47:03;6.93;;;6.07;;
489;SDS011;231;48.120;11.576;2023-07-29T14:49:30;9.83;;;7.63;;
489;SDS011;231;48.120;11.576;2023-07-29T14:52:02;8.83;;;8.33;;
489;SDS011;231;48.120;11.576;2023-07-29T14:54:37;8.73;;;8.10;;
489;SDS011;231;48.120;11.576;2023-07-29T14:57:04;7.40;;;7.00;;
489;SDS011;231;48.120;11.576;2023-07-29T14:59:36;10.10;;;8.20;;
489;SDS011;231;48.120;11.576;2023-07-29T15:02:03;15.07;;;9.63;;
489;SDS011;231;48.120;11.576;2023-07-29T15:04:30;12.43;;;9.07;;
489;SDS011;231;48.120;11.576;2023-07-29T15:06:58;8.73;;;8.23;;
489;SDS011;231;48.120;11.576;2023-07-29T15:09:51;8.47;;;8.00;;
489;SDS011;231;48.120;11.576;2023-07-29T15:12:20;9.10;;;8.60;;
489;SDS011;231;48.120;11.576;2023-07-29T15:14:47;10.10;;;8.23;;
489;SDS011;231;48.120;11.576;2023-07-29T15:17:14;9.83;;;9.33;;
489;SDS011;231;48.120;11.576;2023-07-29T15:19:41;8.83;;;8.33;;
489;SDS011;231;48.120;11.576;2023-07-29T15:22:08;10.53;;;9.57;;
489;SDS011;231;48.120;11.576;2023-07-29T15:24:35;9.20;;;8.70;;
489;SDS011;231;48.120;11.576;2023-07-29T15:27:05;11.07;;;10.47;;
489;SDS011;231;48.120;11.576;2023-07-29T15:29:32;8.33;;;7.90;;
489;SDS011;231;48.120;11.576;2023-07-29T15:31:59;10.47;;;9.83;;
489;SDS011;231;48.120;11.576;2023-07-29T15:34:26;7.67;;;7.27;;
489;SDS011;231;48.120;11.576;2023-07-29T15:36:56;8.63;;;8.13;;
489;SDS011;231;48.120;11.576;2023-07-29T15:39:23;9.30;;;8.80;;
489;SDS011;231;48.120;11.576;2023-07-29T15:41:50;8.67;;;8.17;;
489;SDS011;231;48.120;11.576;2023-07-29T15:44:19;8.23;;;7.87;;
489;SDS011;231;48.120;11.576;2023-07-29T15:46:47;6.03;;;5.73;;
489;SDS011;231;48.120;11.576;2023-07-29T15:49:16;7.37;;;7.00;;
489;SDS011;231;48.120;11.576;2023-07-29T15:51:44;9.13;;;8.63;;
489;SDS011;231;48.120;11.576;2023-07-29T15:54:11;10.80;;;7.53;;
489;SDS011;231;48.120;11.576;2023-07-29T15:56:38;6.63;;;6.23;;
489;SDS011;231;48.120;11.576;2023-07-29T15:59:05;6.10;;;5.80;;
489;SDS011;231;48.120;11.576;2023-07-29T16:01:34;6.23;;;5.90;;
489;SDS011;231;48.120;11.576;2023-07-29T16:04:01;6.70;;;6.30;;
489;SDS011;231;48.120;11.576;2023-07-29T16:06:28;7.00;;;6.60;;
489;SDS011;231;48.120;11.576;2023-07-29T16:08:55;6.53;;;6.13;;
489;SDS011;231;48.120;11.576;2023-07-29T16:11:24;6.43;;;6.03;;
489;SDS011;231;48.120;11.576;2023-07-29T16:13:53;6.60;;;6.20;;
489;SDS011;231;48.120;11.576;2023-07-29T16:16:20;5.47;;;4.80;;
489;SDS011;231;48.120;11.576;2023-07-29T16:18:49;5.60;;;5.30;;
489;SDS011;231;48.120;11.576;2023-07-29T16:21:16;5.83;;;4.80;;
489;SDS011;231;48.120;11.576;2023-07-29T16:23:43;4.97;;;4.67;;
489;SDS011;231;48.120;11.576;2023-07-29T16:26:10;4.93;;;4.63;;
489;SDS011;231;48.120;11.576;2023-07-29T16:28:37;7.23;;;5.47;;
489;SDS011;231;48.120;11.576;2023-07-29T16:31:06;6.00;;;4.90;;
489;SDS011;231;48.120;11.576;2023-07-29T16:33:33;5.20;;;4.90;;
489;SDS011;231;48.120;11.576;2023-07-29T16:36:01;5.10;;;4.80;;
489;SDS011;231;48.120;11.576;2023-07-29T16:38:28;5.43;;;5.13;;
489;SDS011;231;48.120;11.576;2023-07-29T16:40:55;4.83;;;4.53;;
489;SDS011;231;48.120;11.576;2023-07-29T16:43:22;5.50;;;5.20;;
489;SDS011;231;48.120;11.576;2023-07-29T16:45:49;5.40;;;5.10;;
489;SDS011;231;48.120;11.576;2023-07-29T16:48:16;5.30;;;5.00;;
489;SDS011;231;48.120;11.576;2023-07-29T16:50:45;5.23;;;4.93;;
489;SDS011;231;48.120;11.576;2023-07-29T16:53:13;5.60;;;5.30;;
489;SDS011;231;48.120;11.576;2023-07-29T16:55:41;9.63;;;5.13;;
489;SDS011;231;48.120;11.576;2023-07-29T16:58:08;4.50;;;4.20;;
489;SDS011;231;48.120;11.576;2023-07-29T17:00:35;5.23;;;4.97;;
489;SDS011;231;48.120;11.576;2023-07-29T17:03:02;4.70;;;4.40;;
489;SDS011;231;48.120;11.576;2023-07-29T17:05:28;4.50;;;4.20;;
489;SDS011;231;48.120;11.576;2023-07-29T17:07:56;5.50;;;3.83;;
489;SDS011;231;48.120;11.576;2023-07-29T17:10:24;4.63;;;4.33;;
489;SDS011;231;48.120;11.576;2023-07-29T17:12:51;4.20;;;3.80;;
489;SDS011;231;48.120;11.576;2023-07-29T17:15:18;3.63;;;3.43;;
489;SDS011;231;48.120;11.576;2023-07-29T17:17:45;3.67;;;3.47;;
489;SDS011;231;48.120;11.576;2023-07-29T17:20:12;3.67;;;3.47;;
489;SDS011;231;48.120;11.576;2023-07-29T17:22:39;3.67;;;3.47;;
489;SDS011;231;48.120;11.576;2023-07-29T17:25:06;4.83;;;3.80;;
489;SDS011;231;48.120;11.576;2023-07-29T17:27:35;3.17;;;3.00;;
489;SDS011;231;48.120;11.576;2023-07-29T17:30:02;4.03;;;3.40;;
489;SDS011;231;48.120;11.576;2023-07-29T17:32:30;3.77;;;3.57;;
489;SDS011;231;48.120;11.576;2023-07-29T17:34:57;5.87;;;3.93;;
489;SDS011;231;48.120;11.576;2023-07-29T17:37:24;7.73;;;3.90;;
489;SDS011;231;48.120;11.576;2023-07-29T17:39:52;4.10;;;3.90;;
489;SDS011;231;48.120;11.576;2023-07-29T17:42:20;4.33;;;4.03;;
489;SDS011;231;48.120;11.576;2023-07-29T17:44:48;5.23;;;3.50;;
489;SDS011;231;48.120;11.576;2023-07-29T17:47:15;4.07;;;3.87;;
489;SDS011;231;48.120;11.576;2023-07-29T17:49:43;4.93;;;4.30;;
489;SDS011;231;48.120;11.576;2023-07-29T17:52:10;4.50;;;4.20;;
489;SDS011;231;48.120;11.576;2023-07-29T17:54:37;5.77;;;4.00;;
489;SDS011;231;48.120;11.576;2023-07-29T17:57:06;3.60;;;3.40;;
489;SDS011;231;48.120;11.576;2023-07-29T17:59:33;3.80;;;3.60;;
489;SDS011;231;48.120;11.576;2023-07-29T18:02:01;3.50;;;3.30;;
489;SDS011;231;48.120;11.576;2023-07-29T18:04:29;3.67;;;3.40;;
489;SDS011;231;48.120;11.576;2023-07-29T18:06:56;3.07;;;2.87;;
489;SDS011;231;48.120;11.576;2023-07-29T18:09:23;3.53;;;3.33;;
489;SDS011;231;48.120;11.576;2023-07-29T18:11:50;3.43;;;3.20;;
489;SDS011;231;48.120;11.576;2023-07-29T18:14:17;3.50;;;3.30;;
489;SDS011;231;48.120;11.576;2023-07-29T18:16:44;4.87;;;4.60;;
489;SDS011;231;48.120;11.576;2023-07-29T18:19:16;3.73;;;3.53;;
489;SDS011;231;48.120;11.576;2023-07-29T18:21:46;4.50;;;4.23;;
489;SDS011;231;48.120;11.576;2023-07-29T18:24:15;4.60;;;4.30;;
489;SDS011;231;48.120;11.576;2023-07-29T18:26:42;4.97;;;4.67;;
489;SDS011;231;48.120;11.576;2023-07-29T18:29:11;4.43;;;4.13;;
489;SDS011;231;48.120;11.576;2023-07-29T18:31:39;4.03;;;3.83;;
489;SDS011;231;48.120;11.576;2023-07-29T18:34:06;4.87;;;4.57;;
489;SDS011;231;48.120;11.576;2023-07-29T18:36:35;4.63;;;4.37;;
489;SDS011;231;48.120;11.576;2023-07-29T18:39:02;3.90;;;3.70;;
489;SDS011;231;48.120;11.576;2023-07-29T18:41:31;3.83;;;3.23;;
489;SDS011;231;48.120;11.576;2023-07-29T18:43:58;4.73;;;4.13;;
489;SDS011;231;48.120;11.576;2023-07-29T18:46:26;4.27;;;4.00;;
489;SDS011;231;48.120;11.576;2023-07-29T18:48:54;4.50;;;4.20;;
489;SDS011;231;48.120;11.576;2023-07-29T18:51:27;4.80;;;4.50;;
489;SDS011;231;48.120;11.576;2023-07-29T18:54:00;3.97;;;3.60;;
489;SDS011;231;48.120;11.576;2023-07-29T18:56:34;3.97;;;3.77;;
489;SDS011;231;48.120;11.576;2023-07-29T18:59:21;4.43;;;3.80;;
489;SDS011;231;48.120;11.576;2023-07-29T19:01:56;4.50;;;4.20;;
489;SDS011;231;48.120;11.576;2023-07-29T19:04:29;5.00;;;4.50;;
489;SDS011;231;48.120;11.576;2023-07-29T19:07:00;3.20;;;3.00;;
489;SDS011;231;48.120;11.576;2023-07-29T19:09:34;3.70;;;3.50;;
489;SDS011;231;48.120;11.576;2023-07-29T19:12:24;3.40;;;3.20;;
489;SDS011;231;48.120;11.576;2023-07-29T19:15:08;3.37;;;2.93;;
489;SDS011;231;48.120;11.576;2023-07-29T19:17:36;3.97;;;2.90;;
489;SDS011;231;48.120;11.576;2023-07-29T19:20:06;3.77;;;3.57;;
489;SDS011;231;48.120;11.576;2023-07-29T19:22:35;2.77;;;2.57;;
489;SDS011;231;48.120;11.576;2023-07-29T19:25:16;3.27;;;3.07;;
489;SDS011;231;48.120;11.576;2023-07-29T19:27:51;2.83;;;2.63;;
489;SDS011;231;48.120;11.576;2023-07-29T19:30:22;4.73;;;3.03;;
489;SDS011;231;48.120;11.576;2023-07-29T19:32:57;2.80;;;2.60;;
489;SDS011;231;48.120;11.576;2023-07-29T19:35:34;2.90;;;2.70;;
489;SDS011;231;48.120;11.576;2023-07-29T19:38:07;4.03;;;2.60;;
489;SDS011;231;48.120;11.576;2023-07-29T19:40:36;2.93;;;2.73;;
489;SDS011;231;48.120;11.576;2023-07-29T19:43:04;3.10;;;2.90;;
489;SDS011;231;48.120;11.576;2023-07-29T19:45:31;3.10;;;2.90;;
489;SDS011;231;48.120;11.576;2023-07-29T19:48:01;3.00;;;2.80;;
489;SDS011;231;48.120;11.576;2023-07-29T19:50:31;3.20;;;3.00;;
489;SDS011;231;48.120;11.576;2023-07-29T19:52:58;2.87;;;2.67;;
489;SDS011;231;48.120;11.576;2023-07-29T19:55:25;2.80;;;2.60;;
489;SDS011;231;48.120;11.576;2023-07-29T19:57:57;3.50;;;3.30;;
489;SDS011;231;48.120;11.576;2023-07-29T20:00:24;3.40;;;2.83;;
489;SDS011;231;48.120;11.576;2023-07-29T20:02:53;3.33;;;3.13;;
489;SDS011;231;48.120;11.576;2023-07-29T20:05:22;3.07;;;2.87;;
489;SDS011;231;48.120;11.576;2023-07-29T20:07:50;3.87;;;3.67;;
489;SDS011;231;48.120;11.576;2023-07-29T20:10:17;3.43;;;3.23;;
489;SDS011;231;48.120;11.576;2023-07-29T20:12:44;3.27;;;3.07;;
489;SDS011;231;48.120;11.576;2023-07-29T20:15:13;4.23;;;3.00;;
489;SDS011;231;48.120;11.576;2023-07-29T20:17:40;3.80;;;3.60;;
489;SDS011;231;48.120;11.576;2023-07-29T20:20:09;3.20;;;3.00;;
489;SDS011;231;48.120;11.576;2023-07-29T20:22:43;3.43;;;3.23;;
489;SDS011;231;48.120;11.576;2023-07-29T20:25:23;3.00;;;2.80;;
489;SDS011;231;48.120;11.576;2023-07-29T20:27:51;4.90;;;4.60;;
489;SDS011;231;48.120;11.576;2023-07-29T20:30:23;3.77;;;3.57;;
489;SDS011;231;48.120;11.576;2023-07-29T20:32:52;3.77;;;3.37;;
489;SDS011;231;48.120;11.576;2023-07-29T20:35:19;3.33;;;2.83;;
489;SDS011;231;48.120;11.576;2023-07-29T20:37:46;4.03;;;3.83;;
489;SDS011;231;48.120;11.576;2023-07-29T20:40:13;3.47;;;3.27;;
489;SDS011;231;48.120;11.576;2023-07-29T20:42:40;3.57;;;3.37;;
489;SDS011;231;48.120;11.576;2023-07-29T20:45:07;2.97;;;2.77;;
489;SDS011;231;48.120;11.576;2023-07-29T20:47:36;4.70;;;3.73;;
489;SDS011;231;48.120;11.576;2023-07-29T20:50:03;3.80;;;3.60;;
489;SDS011;231;48.120;11.576;2023-07-29T20:52:31;3.67;;;3.47;;
489;SDS011;231;48.120;11.576;2023-07-29T20:55:00;5.77;;;3.83;;
489;SDS011;231;48.120;11.576;2023-07-29T20:57:27;3.90;;;3.70;;
489;SDS011;231;48.120;11.576;2023-07-29T20:59:54;3.50;;;3.30;;
489;SDS011;231;48.120;11.576;2023-07-29T21:02:21;3.57;;;3.37;;
489;SDS011;231;48.120;11.576;2023-07-29T21:04:49;3.90;;;3.67;;
489;SDS011;231;48.120;11.576;2023-07-29T21:07:16;4.40;;;4.10;;
489;SDS011;231;48.120;11.576;2023-07-29T21:09:42;3.80;;;3.60;;
489;SDS011;231;48.120;11.576;2023-07-29T21:12:09;3.47;;;3.03;;
489;SDS011;231;48.120;11.576;2023-07-29T21:14:36;2.87;;;2.67;;
489;SDS011;231;48.120;11.576;2023-07-29T21:17:03;3.60;;;3.40;;
489;SDS011;231;48.120;11.576;2023-07-29T21:19:30;3.30;;;3.10;;
489;SDS011;231;48.120;11.576;2023-07-29T21:21:59;2.90;;;2.70;;
489;SDS011;231;48.120;11.576;2023-07-29T21:24:26;3.43;;;3.23;;
489;SDS011;231;48.120;11.576;2023-07-29T21:26:53;3.17;;;2.97;;
489;SDS011;231;48.120;11.576;2023-07-29T21:29:20;3.50;;;3.30;;
489;SDS011;231;48.120;11.576;2023-07-29T21:31:47;3.50;;;3.30;;
489;SDS011;231;48.120;11.576;2023-07-29T21:34:13;2.73;;;2.53;;
489;SDS011;231;48.120;11.576;2023-07-29T21:36:40;2.50;;;2.33;;
489;SDS011;231;48.120;11.576;2023-07-29T21:39:08;2.90;;;2.70;;
489;SDS011;231;48.120;11.576;2023-07-29T21:41:35;2.77;;;2.57;;